Home   Weather   Norway   Kvernaland   Past weeks
Flag for Norway

Past Weather in Kvernaland, Norway — Yesterday and Last 2 Weeks

Currently: 46 °F. Scattered clouds. (Weather station: Stavanger / Sola, Norway). See more current weather

Past Weather in Kvernaland — Graph

°F

Kvernaland Temperature Yesterday

Maximum temperature yesterday: 46 °F (at 1:20 pm)
Minimum temperature yesterday: 34 °F (at 12:50 am)
Average temperature yesterday: 41 °F

High & Low Weather Summary for the Past Weeks

 TemperatureHumidityPressure
High50 °F (Mar 30, 2:20 pm)100% (Mar 31, 6:20 am)30.45 "Hg (Mar 31, 6:20 am)
Low28 °F (Apr 5, 3:50 am)40% (Apr 12, 4:50 pm)29.21 "Hg (Apr 9, 5:50 am)
Average40 °F75%29.92 "Hg
* Reported Mar 30 2:20 pm — Apr 14 2:50 pm, Kvernaland. Weather by CustomWeather, © 2021

Note: Actual official high and low records may vary slightly from our data, if they occured in-between our weather recording intervals... More about our weather records

Kvernaland Weather History for the Previous 24 Hours

Scroll right to see more
 ConditionsComfort  
Time TempWeatherWind HumidityBarometerVisibility
2:50 pm
Wed, Apr 14
46 °FScattered clouds.13 mph66%30.45 "HgN/A
2:20 pm46 °FPartly sunny.14 mph66%30.45 "HgN/A
1:50 pm46 °FScattered clouds.14 mph66%30.45 "HgN/A
1:20 pm46 °FPartly sunny.10 mph62%30.45 "HgN/A
12:50 pm45 °FScattered clouds.8 mph61%30.45 "HgN/A
12:20 pm45 °FSunny.8 mph61%30.45 "Hg10 mi
11:50 am43 °FSunny.9 mph66%30.45 "Hg10 mi
11:20 am45 °FSunny.10 mph61%30.45 "Hg10 mi
10:50 am43 °FSunny.12 mph66%30.45 "Hg10 mi
9:50 am41 °FSunny.8 mph70%30.42 "Hg10 mi
9:20 am41 °FSunny.9 mph76%30.42 "Hg10 mi
8:50 am41 °FSunny.10 mph76%30.42 "Hg10 mi
8:20 am39 °FPassing clouds.8 mph81%30.42 "HgN/A
7:50 am39 °FPassing clouds.6 mph81%30.39 "HgN/A
7:20 am37 °FPassing clouds.5 mph87%30.39 "HgN/A
6:50 am37 °FPassing clouds.9 mph81%30.39 "HgN/A
6:20 am37 °FPassing clouds.9 mph81%30.39 "HgN/A
5:50 am37 °FPassing clouds.7 mph87%30.39 "HgN/A
4:50 am37 °FPassing clouds.9 mph87%30.39 "HgN/A
3:50 am36 °FPassing clouds.6 mph87%30.36 "HgN/A
2:50 am39 °FOvercast.15 mph75%30.36 "HgN/A
1:50 am39 °FPassing clouds.8 mph75%30.36 "HgN/A
12:50 am39 °FPassing clouds.13 mph75%30.36 "HgN/A
12:20 am39 °FClear.10 mph75%30.36 "Hg10 mi
11:50 pm
Tue, Apr 13
39 °FClear.13 mph70%30.36 "Hg10 mi
11:20 pm39 °FPassing clouds.14 mph70%30.36 "HgN/A
10:50 pm41 °FPassing clouds.14 mph70%30.36 "HgN/A
9:50 pm41 °FPassing clouds.17 mph66%30.33 "HgN/A
9:20 pm41 °FPassing clouds.18 mph70%30.33 "HgN/A
8:50 pm41 °FPassing clouds.17 mph61%30.33 "HgN/A
8:20 pm41 °FPassing clouds.20 mph57%30.33 "HgN/A
7:50 pm41 °FScattered clouds.23 mph66%30.30 "HgN/A
7:20 pm43 °FSunny.24 mph57%30.30 "Hg10 mi
6:50 pm43 °FSunny.25 mph53%30.30 "Hg10 mi
6:20 pm45 °FSunny.24 mph53%30.30 "Hg10 mi
5:50 pm45 °FScattered showers. Passing clouds.23 mph46%30.30 "HgN/A
5:20 pm45 °FScattered showers. Passing clouds.23 mph49%30.27 "HgN/A
4:50 pm45 °FPassing clouds.24 mph57%30.27 "HgN/A
4:20 pm46 °FPassing clouds.23 mph43%30.27 "HgN/A
Weather by CustomWeather, © 2021

See weather overview